createdAt,value
2023-05-08T00:00:15.293Z,74
2023-05-08T00:01:22.161Z,74
2023-05-08T00:02:29.059Z,73
2023-05-08T00:03:36.286Z,74
2023-05-08T00:04:43.348Z,74
2023-05-08T00:05:50.288Z,74
2023-05-08T00:06:57.212Z,73
2023-05-08T00:08:04.225Z,73
2023-05-08T00:09:11.195Z,73
2023-05-08T00:10:18.148Z,73
2023-05-08T00:11:26.152Z,74
2023-05-08T00:12:33.095Z,74
2023-05-08T00:13:40.893Z,74
2023-05-08T00:14:47.850Z,73
2023-05-08T00:15:54.823Z,73
2023-05-08T00:17:02.821Z,73
2023-05-08T00:18:09.602Z,73
2023-05-08T00:19:16.500Z,73
2023-05-08T00:20:23.449Z,74
2023-05-08T00:21:31.524Z,73
2023-05-08T00:22:38.647Z,73
2023-05-08T00:23:45.555Z,74
2023-05-08T00:24:52.377Z,73
2023-05-08T00:25:59.374Z,74
2023-05-08T00:27:06.406Z,74
2023-05-08T00:28:13.337Z,74
2023-05-08T00:29:20.272Z,74
2023-05-08T00:30:27.361Z,74
2023-05-08T00:31:34.373Z,74
2023-05-08T00:32:41.367Z,74
2023-05-08T00:33:48.231Z,74
2023-05-08T00:34:55.229Z,74
2023-05-08T00:36:02.106Z,74
2023-05-08T00:37:09.225Z,74
2023-05-08T00:38:16.145Z,74
2023-05-08T00:39:23.113Z,74
2023-05-08T00:40:30.087Z,74
2023-05-08T00:41:36.945Z,74
2023-05-08T00:42:44.026Z,74
2023-05-08T00:43:51.082Z,74
2023-05-08T00:44:58.044Z,74
2023-05-08T00:46:05.118Z,74
2023-05-08T00:47:11.966Z,74
2023-05-08T00:48:18.896Z,74
2023-05-08T00:49:26.015Z,74
2023-05-08T00:50:32.913Z,74
2023-05-08T00:51:39.913Z,74
2023-05-08T00:52:47.809Z,75
2023-05-08T00:53:54.787Z,75
2023-05-08T00:55:01.763Z,74
2023-05-08T00:56:08.994Z,74
2023-05-08T00:57:15.947Z,75
2023-05-08T00:58:22.892Z,74
2023-05-08T00:59:29.827Z,74
2023-05-08T01:00:36.781Z,74
2023-05-08T01:01:45.403Z,74
2023-05-08T01:02:52.388Z,74
2023-05-08T01:03:59.297Z,74
2023-05-08T01:05:08.921Z,74
2023-05-08T01:06:15.846Z,74
2023-05-08T01:07:23.058Z,74
2023-05-08T01:08:30.059Z,74
2023-05-08T01:09:37.554Z,74
2023-05-08T01:10:44.795Z,73
2023-05-08T01:11:52.562Z,73
2023-05-08T01:13:09.910Z,74
2023-05-08T01:14:19.816Z,73
2023-05-08T01:15:34.997Z,73
2023-05-08T01:16:41.872Z,73
2023-05-08T01:17:59.197Z,73
2023-05-08T01:19:11.321Z,73
2023-05-08T01:20:28.693Z,73
2023-05-08T01:21:35.613Z,73
2023-05-08T01:22:46.707Z,72
2023-05-08T01:24:04.081Z,73
2023-05-08T01:25:13.668Z,73
2023-05-08T01:26:30.968Z,73
2023-05-08T01:27:45.671Z,73
2023-05-08T01:29:03.025Z,74
2023-05-08T01:30:18.072Z,73
2023-05-08T01:31:30.218Z,74
2023-05-08T01:32:47.619Z,74
2023-05-08T01:33:54.595Z,74
2023-05-08T01:35:06.680Z,74
2023-05-08T01:36:13.730Z,74
2023-05-08T01:37:25.851Z,74
2023-05-08T01:38:38.156Z,73
2023-05-08T01:39:55.659Z,74
2023-05-08T01:41:12.937Z,74
2023-05-08T01:42:19.912Z,74
2023-05-08T01:43:27.076Z,74
2023-05-08T01:44:38.348Z,74
2023-05-08T01:45:45.352Z,74
2023-05-08T01:46:52.319Z,74
2023-05-08T01:47:59.291Z,73
2023-05-08T01:49:09.089Z,74
2023-05-08T01:50:16.142Z,74
2023-05-08T01:51:23.048Z,74
2023-05-08T01:52:30.100Z,74
2023-05-08T01:53:37.037Z,74
2023-05-08T01:54:47.931Z,75
2023-05-08T01:56:00.050Z,74
2023-05-08T01:57:07.985Z,74
2023-05-08T01:58:15.728Z,74
2023-05-08T01:59:22.698Z,74
2023-05-08T02:00:30.595Z,74
2023-05-08T02:01:37.528Z,74
2023-05-08T02:02:44.740Z,74
2023-05-08T02:03:52.468Z,74
2023-05-08T02:04:59.300Z,74
2023-05-08T02:06:06.290Z,75
2023-05-08T02:07:13.243Z,74
2023-05-08T02:08:20.199Z,75
2023-05-08T02:09:27.137Z,74
2023-05-08T02:10:34.180Z,74
2023-05-08T02:11:41.178Z,74
2023-05-08T02:12:48.157Z,74
2023-05-08T02:13:55.200Z,74
2023-05-08T02:15:02.047Z,74
2023-05-08T02:16:09.323Z,75
2023-05-08T02:17:16.208Z,75
2023-05-08T02:18:23.152Z,75
2023-05-08T02:19:30.976Z,74
2023-05-08T02:20:38.077Z,74
2023-05-08T02:21:45.000Z,74
2023-05-08T02:22:52.862Z,74
2023-05-08T02:23:59.759Z,74
2023-05-08T02:25:06.709Z,74
2023-05-08T02:26:13.672Z,73
2023-05-08T02:27:20.539Z,74
2023-05-08T02:28:27.532Z,74
2023-05-08T02:29:34.479Z,74
2023-05-08T02:30:41.397Z,74
2023-05-08T02:31:48.454Z,74
2023-05-08T02:32:55.935Z,74
2023-05-08T02:34:02.292Z,73
2023-05-08T02:35:09.165Z,74
2023-05-08T02:36:16.072Z,73
2023-05-08T02:37:22.996Z,73
2023-05-08T02:38:30.000Z,73
2023-05-08T02:39:36.973Z,73
2023-05-08T02:40:43.913Z,73
2023-05-08T02:41:50.843Z,73
2023-05-08T02:42:57.917Z,74
2023-05-08T02:44:04.843Z,73
2023-05-08T02:45:11.823Z,74
2023-05-08T02:46:18.992Z,74
2023-05-08T02:47:30.678Z,74
2023-05-08T02:48:42.779Z,74
2023-05-08T02:49:54.888Z,74
2023-05-08T02:51:07.964Z,74
2023-05-08T02:52:25.347Z,74
2023-05-08T02:53:32.292Z,74
2023-05-08T02:54:39.296Z,74
2023-05-08T02:55:57.280Z,74
2023-05-08T02:57:04.692Z,74
2023-05-08T02:58:14.155Z,73
2023-05-08T02:59:21.121Z,74
2023-05-08T03:00:38.576Z,74
2023-05-08T03:01:50.782Z,73
2023-05-08T03:02:57.671Z,73
2023-05-08T03:04:12.502Z,73
2023-05-08T03:05:24.706Z,73
2023-05-08T03:06:31.648Z,73
2023-05-08T03:07:43.693Z,73
2023-05-08T03:08:50.610Z,73
2023-05-08T03:09:57.553Z,73
2023-05-08T03:11:04.444Z,73
2023-05-08T03:12:20.061Z,73
2023-05-08T03:13:26.972Z,74
2023-05-08T03:14:34.746Z,74
2023-05-08T03:15:41.687Z,74
2023-05-08T03:16:54.209Z,74
2023-05-08T03:18:01.192Z,74
2023-05-08T03:19:11.077Z,74
2023-05-08T03:20:23.087Z,74
2023-05-08T03:21:30.201Z,74
2023-05-08T03:22:37.140Z,74
2023-05-08T03:23:44.196Z,75
2023-05-08T03:24:51.081Z,74
2023-05-08T03:25:57.953Z,74
2023-05-08T03:27:04.853Z,74
2023-05-08T03:28:11.763Z,74
2023-05-08T03:29:18.689Z,73
2023-05-08T03:30:25.748Z,74
2023-05-08T03:31:32.657Z,74
2023-05-08T03:32:40.381Z,74
2023-05-08T03:33:47.252Z,74
2023-05-08T03:34:54.310Z,73
2023-05-08T03:36:01.267Z,73
2023-05-08T03:37:08.331Z,73
2023-05-08T03:38:15.164Z,73
2023-05-08T03:39:22.029Z,73
2023-05-08T03:40:29.089Z,73
2023-05-08T03:41:35.933Z,74
2023-05-08T03:42:42.759Z,73
2023-05-08T03:43:49.672Z,73
2023-05-08T03:44:56.748Z,73
2023-05-08T03:46:03.892Z,73
2023-05-08T03:47:12.269Z,73
2023-05-08T03:48:19.105Z,73
2023-05-08T03:49:25.940Z,73
2023-05-08T03:50:32.930Z,73
2023-05-08T03:51:39.824Z,73
2023-05-08T03:52:46.806Z,73
2023-05-08T03:53:53.757Z,72
2023-05-08T03:55:00.626Z,73
2023-05-08T03:56:07.788Z,72
2023-05-08T03:57:14.749Z,72
2023-05-08T03:58:21.698Z,72
2023-05-08T03:59:38.857Z,72
2023-05-08T04:00:50.901Z,72
2023-05-08T04:02:08.384Z,72
2023-05-08T04:03:25.761Z,72
2023-05-08T04:04:37.820Z,72
2023-05-08T04:05:44.844Z,72
2023-05-08T04:06:59.924Z,72
2023-05-08T04:08:06.975Z,72
2023-05-08T04:09:19.988Z,72
2023-05-08T04:10:35.009Z,72
2023-05-08T04:11:41.932Z,72
2023-05-08T04:12:59.283Z,72
2023-05-08T04:14:11.507Z,72
2023-05-08T04:15:18.432Z,72
2023-05-08T04:16:25.477Z,73
2023-05-08T04:17:32.405Z,73
2023-05-08T04:18:46.891Z,73
2023-05-08T04:19:53.788Z,73
2023-05-08T04:21:00.724Z,73
2023-05-08T04:22:07.805Z,74
2023-05-08T04:23:14.738Z,73
2023-05-08T04:24:21.613Z,73
2023-05-08T04:25:28.536Z,73
2023-05-08T04:26:35.578Z,73
2023-05-08T04:27:42.502Z,73
2023-05-08T04:28:49.381Z,74
2023-05-08T04:29:56.359Z,73
2023-05-08T04:31:03.168Z,73
2023-05-08T04:32:10.248Z,73
2023-05-08T04:33:17.130Z,73
2023-05-08T04:34:24.200Z,73
2023-05-08T04:35:31.104Z,73
2023-05-08T04:36:38.162Z,73
2023-05-08T04:37:45.139Z,74
2023-05-08T04:38:52.043Z,74
2023-05-08T04:39:58.904Z,73
2023-05-08T04:41:06.739Z,75
2023-05-08T04:42:13.659Z,74
2023-05-08T04:43:20.742Z,74
2023-05-08T04:44:27.632Z,74
2023-05-08T04:45:34.616Z,74
2023-05-08T04:46:41.473Z,74
2023-05-08T04:47:48.386Z,74
2023-05-08T04:48:55.550Z,74
2023-05-08T04:50:03.102Z,74
2023-05-08T04:51:09.627Z,74
2023-05-08T04:52:16.540Z,74
2023-05-08T04:53:23.458Z,74
2023-05-08T04:54:30.558Z,74
2023-05-08T04:55:37.582Z,74
2023-05-08T04:56:44.548Z,74
2023-05-08T04:57:51.447Z,74
2023-05-08T04:58:58.389Z,73
2023-05-08T05:00:05.491Z,73
2023-05-08T05:01:12.890Z,74
2023-05-08T05:02:19.803Z,74
2023-05-08T05:03:26.719Z,73
2023-05-08T05:04:33.637Z,73
2023-05-08T05:05:40.686Z,74
2023-05-08T05:06:47.681Z,73
2023-05-08T05:07:54.504Z,73
2023-05-08T05:09:01.481Z,73
2023-05-08T05:10:08.527Z,73
2023-05-08T05:11:15.528Z,73
2023-05-08T05:12:22.427Z,73
2023-05-08T05:13:29.480Z,73
2023-05-08T05:14:36.328Z,74
2023-05-08T05:15:43.355Z,74
2023-05-08T05:16:50.235Z,73
2023-05-08T05:17:57.138Z,74
2023-05-08T05:19:04.133Z,74
2023-05-08T05:20:11.090Z,73
2023-05-08T05:21:17.969Z,73
2023-05-08T05:22:25.053Z,73
2023-05-08T05:23:32.003Z,73
2023-05-08T05:24:38.975Z,73
2023-05-08T05:25:45.957Z,73
2023-05-08T05:26:53.706Z,73
2023-05-08T05:28:00.713Z,72
2023-05-08T05:29:07.707Z,71
2023-05-08T05:30:14.838Z,70
2023-05-08T05:31:21.674Z,70
2023-05-08T05:32:28.657Z,71
2023-05-08T05:33:35.714Z,70
2023-05-08T05:34:42.660Z,70
2023-05-08T05:35:49.636Z,70
2023-05-08T05:36:56.522Z,70
2023-05-08T05:38:03.629Z,70
2023-05-08T05:39:10.695Z,71
2023-05-08T05:40:17.678Z,70
2023-05-08T05:41:24.690Z,70
2023-05-08T05:42:31.473Z,69
2023-05-08T05:43:38.451Z,70
2023-05-08T05:44:45.412Z,69
2023-05-08T05:45:52.378Z,69
2023-05-08T05:47:07.790Z,70
2023-05-08T05:48:14.954Z,70
2023-05-08T05:49:21.877Z,69
2023-05-08T05:50:28.929Z,69
2023-05-08T05:51:35.769Z,69
2023-05-08T05:52:42.695Z,69
2023-05-08T05:53:49.623Z,69
2023-05-08T05:54:56.606Z,69
2023-05-08T05:56:03.550Z,69
2023-05-08T05:57:10.786Z,69
2023-05-08T05:58:17.778Z,69
2023-05-08T05:59:24.746Z,69
2023-05-08T06:00:31.689Z,69
2023-05-08T06:01:39.065Z,70
2023-05-08T06:02:46.301Z,69
2023-05-08T06:03:53.354Z,69
2023-05-08T06:05:00.185Z,68
2023-05-08T06:06:07.115Z,67
2023-05-08T06:07:14.010Z,67
2023-05-08T06:08:21.833Z,67
2023-05-08T06:09:28.872Z,66
2023-05-08T06:10:35.845Z,66
2023-05-08T06:11:42.843Z,65
2023-05-08T06:12:49.863Z,66
2023-05-08T06:13:56.805Z,65
2023-05-08T06:15:03.876Z,65
2023-05-08T06:16:11.076Z,66
2023-05-08T06:17:18.001Z,65
2023-05-08T06:18:25.680Z,65
2023-05-08T06:19:32.600Z,65
2023-05-08T06:20:39.688Z,65
2023-05-08T06:21:47.649Z,65
2023-05-08T06:22:54.635Z,65
2023-05-08T06:24:01.511Z,64
2023-05-08T06:25:08.481Z,65
2023-05-08T06:26:15.577Z,65
2023-05-08T06:27:22.674Z,64
2023-05-08T06:28:29.612Z,65
2023-05-08T06:29:36.682Z,64
2023-05-08T06:30:44.493Z,64
2023-05-08T06:31:51.329Z,63
2023-05-08T06:32:58.299Z,63
2023-05-08T06:34:07.844Z,64
2023-05-08T06:35:16.007Z,63
2023-05-08T06:36:24.201Z,63
2023-05-08T06:37:31.196Z,64
2023-05-08T06:38:38.385Z,64
2023-05-08T06:39:45.302Z,64
2023-05-08T06:40:52.384Z,63
2023-05-08T06:41:59.271Z,64
2023-05-08T06:43:06.242Z,63
2023-05-08T06:44:13.172Z,63
2023-05-08T06:45:20.982Z,63
2023-05-08T06:46:28.114Z,63
2023-05-08T06:47:34.997Z,64
2023-05-08T06:48:41.896Z,63
2023-05-08T06:49:48.846Z,63
2023-05-08T06:50:55.965Z,63
2023-05-08T06:52:02.994Z,63
2023-05-08T06:53:10.819Z,64
2023-05-08T06:54:17.703Z,63
2023-05-08T06:55:24.645Z,63
2023-05-08T06:56:31.923Z,63
2023-05-08T06:57:39.065Z,63
2023-05-08T06:58:53.613Z,63
2023-05-08T06:59:52.964Z,62
2023-05-08T07:00:59.893Z,63
2023-05-08T07:02:07.143Z,62
2023-05-08T07:03:14.261Z,64
2023-05-08T07:04:22.069Z,63
2023-05-08T07:05:29.068Z,62
2023-05-08T07:06:36.114Z,63
2023-05-08T07:07:43.092Z,63
2023-05-08T07:08:50.089Z,63
2023-05-08T07:09:59.223Z,63
2023-05-08T07:11:06.168Z,63
2023-05-08T07:12:13.965Z,62
2023-05-08T07:13:20.929Z,62
2023-05-08T07:14:28.140Z,62
2023-05-08T07:15:35.255Z,63
2023-05-08T07:16:44.713Z,63
2023-05-08T07:17:52.626Z,62
2023-05-08T07:18:59.473Z,62
2023-05-08T07:20:06.322Z,62
2023-05-08T07:21:13.576Z,62
2023-05-08T07:22:20.597Z,62
2023-05-08T07:23:27.557Z,61
2023-05-08T07:24:34.460Z,62
2023-05-08T07:25:41.436Z,62
2023-05-08T07:26:49.392Z,61
2023-05-08T07:27:56.449Z,62
2023-05-08T07:29:04.434Z,62
2023-05-08T07:30:11.579Z,62
2023-05-08T07:31:18.843Z,62
2023-05-08T07:32:30.305Z,62
2023-05-08T07:33:39.888Z,62
2023-05-08T07:34:46.949Z,63
2023-05-08T07:35:55.393Z,62
2023-05-08T07:37:02.405Z,62
2023-05-08T07:38:09.339Z,61
2023-05-08T07:39:16.309Z,62
2023-05-08T07:40:23.296Z,62
2023-05-08T07:41:30.338Z,62
2023-05-08T07:42:38.310Z,62
2023-05-08T07:43:45.242Z,62
2023-05-08T07:44:55.069Z,62
2023-05-08T07:45:59.141Z,62
2023-05-08T07:47:06.325Z,62
2023-05-08T07:48:13.306Z,62
2023-05-08T07:49:20.252Z,61
2023-05-08T07:50:28.114Z,61
2023-05-08T07:51:35.075Z,62
2023-05-08T07:52:42.194Z,61
2023-05-08T07:53:49.989Z,61
2023-05-08T07:54:57.041Z,60
2023-05-08T07:56:06.974Z,61
2023-05-08T07:57:13.945Z,60
2023-05-08T07:58:22.735Z,60
2023-05-08T07:59:27.842Z,60
2023-05-08T08:00:34.956Z,60
2023-05-08T08:02:49.116Z,60
2023-05-08T08:03:56.002Z,61
2023-05-08T08:05:03.136Z,60
2023-05-08T08:06:10.134Z,61
2023-05-08T08:07:17.093Z,60
2023-05-08T08:08:24.021Z,59
2023-05-08T08:09:30.970Z,59
2023-05-08T08:10:38.027Z,59
2023-05-08T08:11:45.110Z,59
2023-05-08T08:12:52.093Z,59
2023-05-08T08:13:58.924Z,59
2023-05-08T08:15:05.935Z,59
2023-05-08T08:16:13.038Z,59
2023-05-08T08:17:20.105Z,58
2023-05-08T08:18:26.924Z,58
2023-05-08T08:19:33.737Z,58
2023-05-08T08:20:40.786Z,58
2023-05-08T08:21:47.972Z,57
2023-05-08T08:22:54.910Z,58
2023-05-08T08:24:01.848Z,57
2023-05-08T08:25:08.773Z,57
2023-05-08T08:26:18.767Z,57
2023-05-08T08:27:25.875Z,56
2023-05-08T08:28:33.071Z,57
2023-05-08T08:29:40.175Z,56
2023-05-08T08:30:48.097Z,58
2023-05-08T08:31:55.059Z,56
2023-05-08T08:33:02.111Z,56
2023-05-08T08:34:09.225Z,57
2023-05-08T08:35:16.268Z,55
2023-05-08T08:36:23.108Z,55
2023-05-08T08:37:29.979Z,55
2023-05-08T08:38:36.910Z,54
2023-05-08T08:39:43.877Z,55
2023-05-08T08:40:50.741Z,55
2023-05-08T08:41:57.708Z,55
2023-05-08T08:43:04.649Z,54
2023-05-08T08:44:11.660Z,55
2023-05-08T08:45:18.548Z,55
2023-05-08T08:46:25.635Z,55
2023-05-08T08:47:32.609Z,54
2023-05-08T08:48:42.136Z,54
2023-05-08T08:49:50.021Z,54
2023-05-08T08:50:56.867Z,54
2023-05-08T08:52:03.724Z,54
2023-05-08T08:53:11.614Z,54
2023-05-08T08:54:26.659Z,55
2023-05-08T08:55:33.655Z,55
2023-05-08T08:56:40.532Z,55
2023-05-08T08:57:48.308Z,55
2023-05-08T08:59:00.427Z,54
2023-05-08T09:00:07.323Z,54
2023-05-08T09:01:14.538Z,54
2023-05-08T09:02:21.571Z,55
2023-05-08T09:03:28.643Z,55
2023-05-08T09:04:35.534Z,55
2023-05-08T09:05:42.649Z,55
2023-05-08T09:06:49.357Z,54
2023-05-08T09:07:56.541Z,54
2023-05-08T09:09:03.644Z,55
2023-05-08T09:10:10.548Z,55
2023-05-08T09:11:17.513Z,55
2023-05-08T09:12:24.525Z,55
2023-05-08T09:13:31.641Z,56
2023-05-08T09:14:38.574Z,55
2023-05-08T09:15:45.502Z,56
2023-05-08T09:16:55.021Z,56
2023-05-08T09:18:03.035Z,55
2023-05-08T09:19:09.846Z,56
2023-05-08T09:20:16.831Z,55
2023-05-08T09:21:23.905Z,55
2023-05-08T09:22:30.680Z,55
2023-05-08T09:23:38.450Z,55
2023-05-08T09:24:55.717Z,55
2023-05-08T09:26:02.608Z,55
2023-05-08T09:27:09.472Z,55
2023-05-08T09:28:24.609Z,55
2023-05-08T09:29:31.522Z,54
2023-05-08T09:30:38.481Z,55
2023-05-08T09:31:55.918Z,55
2023-05-08T09:33:02.892Z,55
2023-05-08T09:34:09.758Z,55
2023-05-08T09:35:27.930Z,55
2023-05-08T09:36:35.192Z,55
2023-05-08T09:37:42.046Z,55
2023-05-08T09:38:49.820Z,55
2023-05-08T09:39:56.721Z,55
2023-05-08T09:41:14.086Z,55
2023-05-08T09:42:25.399Z,54
2023-05-08T09:43:32.257Z,55
2023-05-08T09:44:39.169Z,55
2023-05-08T09:45:51.755Z,55
2023-05-08T09:46:58.685Z,55
2023-05-08T09:48:14.643Z,55
2023-05-08T09:49:21.577Z,54
2023-05-08T09:50:28.700Z,54
2023-05-08T09:51:35.595Z,53
2023-05-08T09:52:43.637Z,53
2023-05-08T09:53:50.669Z,54
2023-05-08T09:54:57.605Z,53
2023-05-08T09:56:11.674Z,53
2023-05-08T09:57:18.679Z,54
2023-05-08T09:58:25.706Z,53
2023-05-08T09:59:43.021Z,53
2023-05-08T10:00:50.017Z,52
2023-05-08T10:01:56.920Z,52
2023-05-08T10:03:04.453Z,53
2023-05-08T10:04:11.818Z,52
2023-05-08T10:05:18.724Z,52
2023-05-08T10:06:31.013Z,53
2023-05-08T10:07:37.916Z,52
2023-05-08T10:08:45.053Z,52
2023-05-08T10:09:51.848Z,52
2023-05-08T10:11:04.151Z,53
2023-05-08T10:12:16.223Z,52
2023-05-08T10:13:23.241Z,52
2023-05-08T10:14:29.989Z,53
2023-05-08T10:15:36.858Z,53
2023-05-08T10:16:46.422Z,53
2023-05-08T10:17:56.023Z,52
2023-05-08T10:19:08.052Z,52
2023-05-08T10:20:21.569Z,52
2023-05-08T10:21:27.624Z,52
2023-05-08T10:22:34.482Z,53
2023-05-08T10:23:41.372Z,52
2023-05-08T10:24:48.469Z,52
2023-05-08T10:25:55.259Z,51
2023-05-08T10:27:07.254Z,54
2023-05-08T10:28:14.188Z,51
2023-05-08T10:29:31.541Z,51
2023-05-08T10:30:49.013Z,50
2023-05-08T10:31:55.886Z,50
2023-05-08T10:33:02.877Z,50
2023-05-08T10:34:09.785Z,50
2023-05-08T10:35:16.704Z,50
2023-05-08T10:36:23.692Z,52
2023-05-08T10:37:30.592Z,51
2023-05-08T10:38:37.536Z,52
2023-05-08T10:39:44.429Z,52
2023-05-08T10:40:51.529Z,52
2023-05-08T10:41:58.526Z,53
2023-05-08T10:43:05.452Z,53
2023-05-08T10:44:12.417Z,52
2023-05-08T10:45:19.283Z,53
2023-05-08T10:46:26.360Z,53
2023-05-08T10:47:38.489Z,53
2023-05-08T10:48:53.618Z,53
2023-05-08T10:50:11.174Z,53
2023-05-08T10:51:26.209Z,52
2023-05-08T10:52:38.884Z,52
2023-05-08T10:53:45.709Z,52
2023-05-08T10:54:52.621Z,52
2023-05-08T10:56:02.268Z,52
2023-05-08T10:57:09.181Z,52
2023-05-08T10:58:16.101Z,53
2023-05-08T10:59:33.318Z,53
2023-05-08T11:00:40.262Z,52
2023-05-08T11:01:55.235Z,52
2023-05-08T11:03:02.238Z,52
2023-05-08T11:04:09.150Z,51
2023-05-08T11:05:24.158Z,52
2023-05-08T11:06:31.168Z,52
2023-05-08T11:07:46.136Z,51
2023-05-08T11:09:00.448Z,52
2023-05-08T11:10:05.034Z,53
2023-05-08T11:11:12.065Z,51
2023-05-08T11:12:24.099Z,51
2023-05-08T11:13:31.013Z,51
2023-05-08T11:14:40.747Z,51
2023-05-08T11:15:47.702Z,51
2023-05-08T11:16:54.644Z,51
2023-05-08T11:18:01.592Z,51
2023-05-08T11:19:13.651Z,50
2023-05-08T11:20:20.541Z,50
2023-05-08T11:21:27.445Z,51
2023-05-08T11:22:34.585Z,50
2023-05-08T11:23:41.586Z,50
2023-05-08T11:24:48.438Z,51
2023-05-08T11:25:58.251Z,51
2023-05-08T11:27:07.991Z,51
2023-05-08T11:28:14.886Z,52
2023-05-08T11:29:21.790Z,52
2023-05-08T11:30:28.752Z,52
2023-05-08T11:31:35.683Z,51
2023-05-08T11:32:52.987Z,51
2023-05-08T11:34:02.909Z,51
2023-05-08T11:35:09.881Z,51
2023-05-08T11:36:16.866Z,50
2023-05-08T11:37:23.852Z,51
2023-05-08T11:38:30.739Z,52
2023-05-08T11:39:37.587Z,51
2023-05-08T11:40:44.621Z,51
2023-05-08T11:41:59.513Z,50
2023-05-08T11:43:11.621Z,51
2023-05-08T11:44:26.546Z,51
2023-05-08T11:45:33.465Z,51
2023-05-08T11:46:40.386Z,51
2023-05-08T11:47:52.378Z,51
2023-05-08T11:48:59.320Z,51
2023-05-08T11:50:06.114Z,51
2023-05-08T11:51:13.079Z,51
2023-05-08T11:52:19.992Z,51
2023-05-08T11:53:26.846Z,51
2023-05-08T11:54:36.400Z,52
2023-05-08T11:55:43.237Z,51
2023-05-08T11:56:52.701Z,51
2023-05-08T11:58:01.637Z,50
2023-05-08T11:59:16.725Z,51
2023-05-08T12:00:23.637Z,51
2023-05-08T12:01:30.456Z,51
2023-05-08T12:02:37.573Z,51
2023-05-08T12:03:44.584Z,51
2023-05-08T12:04:51.376Z,50
2023-05-08T12:05:58.344Z,50
2023-05-08T12:07:06.698Z,50
2023-05-08T12:08:14.701Z,50
2023-05-08T12:09:21.724Z,51
2023-05-08T12:10:28.646Z,51
2023-05-08T12:11:35.518Z,50
2023-05-08T12:12:42.569Z,49
2023-05-08T12:13:49.318Z,49
2023-05-08T12:14:56.323Z,50
2023-05-08T12:16:03.176Z,50
2023-05-08T12:17:10.159Z,50
2023-05-08T12:18:17.105Z,49
2023-05-08T12:19:23.950Z,49
2023-05-08T12:20:32.084Z,49
2023-05-08T12:21:37.804Z,50
2023-05-08T12:22:49.981Z,50
2023-05-08T12:23:56.954Z,51
2023-05-08T12:25:03.877Z,51
2023-05-08T12:26:10.837Z,51
2023-05-08T12:27:17.917Z,50
2023-05-08T12:28:24.883Z,50
2023-05-08T12:29:31.753Z,50
2023-05-08T12:30:38.721Z,50
2023-05-08T12:31:45.584Z,50
2023-05-08T12:32:52.557Z,49
2023-05-08T12:33:59.398Z,49
2023-05-08T12:35:06.266Z,50
2023-05-08T12:36:13.144Z,50
2023-05-08T12:37:20.140Z,51
2023-05-08T12:38:27.163Z,49
2023-05-08T12:39:34.054Z,49
2023-05-08T12:40:40.983Z,49
2023-05-08T12:41:47.954Z,48
2023-05-08T12:42:54.913Z,49
2023-05-08T12:44:01.848Z,49
2023-05-08T12:45:08.729Z,50
2023-05-08T12:46:23.965Z,51
2023-05-08T12:47:31.639Z,50
2023-05-08T12:48:38.489Z,51
2023-05-08T12:49:45.441Z,51
2023-05-08T12:50:55.513Z,49
2023-05-08T12:52:04.901Z,50
2023-05-08T12:53:11.825Z,49
2023-05-08T12:54:18.748Z,50
2023-05-08T12:55:25.652Z,48
2023-05-08T12:56:32.531Z,48
2023-05-08T12:57:39.384Z,48
2023-05-08T12:58:46.307Z,47
2023-05-08T12:59:53.201Z,49
2023-05-08T13:01:00.160Z,48
2023-05-08T13:02:12.553Z,49
2023-05-08T13:03:22.455Z,48
2023-05-08T13:04:29.372Z,49
2023-05-08T13:05:36.185Z,49
2023-05-08T13:06:46.074Z,49
2023-05-08T13:07:58.119Z,48
2023-05-08T13:09:04.977Z,48
2023-05-08T13:10:12.292Z,48
2023-05-08T13:11:19.103Z,48
2023-05-08T13:12:31.174Z,48
2023-05-08T13:13:38.209Z,48
2023-05-08T13:14:45.376Z,48
2023-05-08T13:15:52.417Z,48
2023-05-08T13:16:59.367Z,48
2023-05-08T13:18:06.721Z,48
2023-05-08T13:19:13.512Z,48
2023-05-08T13:20:20.397Z,48
2023-05-08T13:21:28.034Z,48
2023-05-08T13:22:34.256Z,49
2023-05-08T13:23:41.228Z,48
2023-05-08T13:24:48.119Z,49
2023-05-08T13:25:54.992Z,49
2023-05-08T13:27:01.946Z,49
2023-05-08T13:28:08.798Z,50
2023-05-08T13:29:15.744Z,49
2023-05-08T13:30:22.771Z,49
2023-05-08T13:31:29.796Z,49
2023-05-08T13:32:36.738Z,48
2023-05-08T13:33:43.694Z,48
2023-05-08T13:34:52.266Z,47
2023-05-08T13:35:57.474Z,47
2023-05-08T13:37:04.379Z,47
2023-05-08T13:38:11.277Z,47
2023-05-08T13:39:18.314Z,47
2023-05-08T13:40:25.358Z,47
2023-05-08T13:41:32.224Z,48
2023-05-08T13:42:39.106Z,50
2023-05-08T13:43:45.953Z,49
2023-05-08T13:44:52.962Z,47
2023-05-08T13:45:59.939Z,48
2023-05-08T13:47:06.830Z,48
2023-05-08T13:48:13.862Z,48
2023-05-08T13:49:20.794Z,48
2023-05-08T13:50:30.590Z,48
2023-05-08T13:51:37.418Z,47
2023-05-08T13:52:44.305Z,47
2023-05-08T13:53:51.369Z,47
2023-05-08T13:54:58.185Z,47
2023-05-08T13:56:05.053Z,47
2023-05-08T13:57:11.945Z,47
2023-05-08T13:58:18.777Z,47
2023-05-08T13:59:25.690Z,47
2023-05-08T14:00:32.502Z,47
2023-05-08T14:01:39.466Z,47
2023-05-08T14:02:46.588Z,48
2023-05-08T14:03:53.348Z,47
2023-05-08T14:05:00.246Z,48
2023-05-08T14:06:07.021Z,47
2023-05-08T14:07:13.941Z,46
2023-05-08T14:08:20.818Z,47
2023-05-08T14:09:27.677Z,47
2023-05-08T14:10:34.539Z,46
2023-05-08T14:11:41.446Z,47
2023-05-08T14:12:48.424Z,47
2023-05-08T14:13:55.257Z,47
2023-05-08T14:15:02.230Z,48
2023-05-08T14:16:09.456Z,48
2023-05-08T14:17:16.298Z,48
2023-05-08T14:18:23.170Z,48
2023-05-08T14:19:30.067Z,48
2023-05-08T14:20:37.067Z,48
2023-05-08T14:21:43.771Z,48
2023-05-08T14:22:52.625Z,49
2023-05-08T14:23:57.633Z,48
2023-05-08T14:25:04.458Z,48
2023-05-08T14:26:11.858Z,48
2023-05-08T14:27:18.735Z,49
2023-05-08T14:28:25.650Z,49
2023-05-08T14:29:32.569Z,49
2023-05-08T14:30:39.527Z,47
2023-05-08T14:31:46.492Z,47
2023-05-08T14:32:53.317Z,47
2023-05-08T14:34:00.256Z,48
2023-05-08T14:35:07.295Z,47
2023-05-08T14:36:14.332Z,48
2023-05-08T14:37:21.069Z,48
2023-05-08T14:38:27.906Z,48
2023-05-08T14:39:34.865Z,48
2023-05-08T14:40:41.737Z,48
2023-05-08T14:42:05.529Z,49
2023-05-08T14:42:55.572Z,48
2023-05-08T14:44:02.538Z,48
2023-05-08T14:45:09.473Z,48
2023-05-08T14:46:16.284Z,48
2023-05-08T14:47:23.161Z,47
2023-05-08T14:48:30.000Z,48
2023-05-08T14:49:38.721Z,47
2023-05-08T14:50:43.866Z,47
2023-05-08T14:51:50.916Z,47
2023-05-08T14:52:57.728Z,46
2023-05-08T14:54:04.734Z,48
2023-05-08T14:55:11.687Z,48
2023-05-08T14:56:18.461Z,47
2023-05-08T14:57:25.222Z,47
2023-05-08T14:58:32.062Z,47
2023-05-08T14:59:46.030Z,48
2023-05-08T15:00:45.950Z,49
2023-05-08T15:01:54.186Z,49
2023-05-08T15:03:01.107Z,49
2023-05-08T15:04:07.910Z,49
2023-05-08T15:06:21.728Z,50
2023-05-08T15:07:28.681Z,50
2023-05-08T15:08:35.482Z,49
2023-05-08T15:09:42.389Z,49
2023-05-08T15:10:49.361Z,49
2023-05-08T15:11:56.261Z,50
2023-05-08T15:13:03.216Z,50
2023-05-08T15:14:10.021Z,50
2023-05-08T15:15:17.029Z,49
2023-05-08T15:16:24.043Z,49
2023-05-08T15:17:30.893Z,50
2023-05-08T15:18:40.740Z,49
2023-05-08T15:19:47.607Z,49
2023-05-08T15:20:54.550Z,50
2023-05-08T15:22:01.522Z,49
2023-05-08T15:23:08.575Z,49
2023-05-08T15:24:15.358Z,49
2023-05-08T15:25:22.226Z,48
2023-05-08T15:26:29.093Z,48
2023-05-08T15:27:36.138Z,48
2023-05-08T15:28:43.080Z,48
2023-05-08T15:29:50.011Z,48
2023-05-08T15:30:56.923Z,48
2023-05-08T15:32:03.883Z,48
2023-05-08T15:33:10.815Z,49
2023-05-08T15:34:17.672Z,48
2023-05-08T15:35:24.536Z,48
2023-05-08T15:36:31.467Z,48
2023-05-08T15:37:38.459Z,48
2023-05-08T15:38:45.480Z,48
2023-05-08T15:39:52.190Z,48
2023-05-08T15:40:59.108Z,48
2023-05-08T15:42:06.054Z,48
2023-05-08T15:43:13.029Z,49
2023-05-08T15:44:20.074Z,48
2023-05-08T15:45:26.981Z,48
2023-05-08T15:46:33.790Z,48
2023-05-08T15:47:40.658Z,47
2023-05-08T15:48:47.824Z,47
2023-05-08T15:49:54.625Z,46
2023-05-08T15:51:01.490Z,46
2023-05-08T15:52:08.390Z,47
2023-05-08T15:53:15.215Z,47
2023-05-08T15:54:22.557Z,47
2023-05-08T15:55:29.334Z,47
2023-05-08T15:56:36.203Z,47
2023-05-08T15:57:43.050Z,48
2023-05-08T15:58:49.880Z,48
2023-05-08T15:59:56.836Z,48
2023-05-08T16:01:03.769Z,48
2023-05-08T16:02:10.615Z,49
2023-05-08T16:03:17.814Z,49
2023-05-08T16:04:24.453Z,49
2023-05-08T16:05:31.382Z,49
2023-05-08T16:06:38.248Z,49
2023-05-08T16:07:45.131Z,49
2023-05-08T16:08:51.972Z,49
2023-05-08T16:09:58.996Z,49